RBA858 WBGG-WBSB
Flight info
| Callsign | RBA858 |
|---|---|
| Flight time | 0h 55m |
| Altitude | 37000 |
| Route | KIKAK1J KIKAK G580 BRU |
| Aircraft | A320/M-SDE3FGHIRWY/LB1 |
Departure
| Time | 2026-05-06 10:24 |
|---|---|
| Airport | Kuching International Airport (WBGG) |
Arrival
| Time | 2026-05-06 11:19 |
|---|---|
| Airport | Brunei International Airport (WBSB) |
| Time | Latitude | Longitude | Altitude | Speed | Heading |
|---|---|---|---|---|---|
| 2026-05-06 10:10 | 1.48706 | 110.34348 | 85 ft | 0 kts | 338° |
| 2026-05-06 10:17 | 1.48694 | 110.34353 | 87 ft | 3 kts | 337° |
| 2026-05-06 10:17 | 1.48676 | 110.34361 | 90 ft | 3 kts | 335° |
| 2026-05-06 10:17 | 1.48657 | 110.34370 | 88 ft | 3 kts | 332° |
| 2026-05-06 10:17 | 1.48640 | 110.34379 | 87 ft | 2 kts | 326° |
| 2026-05-06 10:18 | 1.48635 | 110.34383 | 86 ft | 0 kts | 325° |
| 2026-05-06 10:21 | 1.48639 | 110.34357 | 87 ft | 14 kts | 256° |
| 2026-05-06 10:21 | 1.48576 | 110.34249 | 92 ft | 20 kts | 233° |
| 2026-05-06 10:21 | 1.48497 | 110.34237 | 89 ft | 12 kts | 223° |
| 2026-05-06 10:21 | 1.48466 | 110.34147 | 90 ft | 18 kts | 248° |
| 2026-05-06 10:22 | 1.48416 | 110.34021 | 91 ft | 20 kts | 250° |
| 2026-05-06 10:22 | 1.48362 | 110.33885 | 93 ft | 21 kts | 245° |
| 2026-05-06 10:22 | 1.48290 | 110.33787 | 94 ft | 17 kts | 187° |
| 2026-05-06 10:22 | 1.48165 | 110.33810 | 94 ft | 16 kts | 162° |
| 2026-05-06 10:23 | 1.48164 | 110.33873 | 92 ft | 10 kts | 65° |
| 2026-05-06 10:23 | 1.48167 | 110.33880 | 92 ft | 0 kts | 68° |
| 2026-05-06 10:23 | 1.48252 | 110.34092 | 92 ft | 72 kts | 68° |
| 2026-05-06 10:24 | 1.48526 | 110.34771 | 82 ft | 136 kts | 68° |
| 2026-05-06 10:24 | 1.48932 | 110.35779 | 236 ft | 167 kts | 68° |
| 2026-05-06 10:24 | 1.49367 | 110.36829 | 1006 ft | 161 kts | 65° |
| 2026-05-06 10:24 | 1.49795 | 110.37852 | 1727 ft | 160 kts | 66° |
| 2026-05-06 10:25 | 1.50206 | 110.38932 | 2121 ft | 177 kts | 67° |
| 2026-05-06 10:25 | 1.50680 | 110.40121 | 2432 ft | 196 kts | 66° |
| 2026-05-06 10:25 | 1.51241 | 110.41444 | 2752 ft | 220 kts | 66° |
| 2026-05-06 10:25 | 1.51883 | 110.42931 | 3133 ft | 246 kts | 68° |
| 2026-05-06 10:26 | 1.52527 | 110.44603 | 3662 ft | 267 kts | 70° |
| 2026-05-06 10:26 | 1.53178 | 110.46364 | 4526 ft | 273 kts | 70° |
| 2026-05-06 10:26 | 1.53845 | 110.48162 | 5436 ft | 277 kts | 70° |
| 2026-05-06 10:26 | 1.54532 | 110.49976 | 6353 ft | 281 kts | 69° |
| 2026-05-06 10:27 | 1.55243 | 110.51806 | 7190 ft | 285 kts | 67° |
| 2026-05-06 10:27 | 1.56234 | 110.53528 | 8024 ft | 289 kts | 52° |
| 2026-05-06 10:27 | 1.57633 | 110.54973 | 8863 ft | 292 kts | 41° |
| 2026-05-06 10:27 | 1.59170 | 110.56328 | 9706 ft | 295 kts | 41° |
| 2026-05-06 10:28 | 1.60725 | 110.57705 | 10312 ft | 306 kts | 42° |
| 2026-05-06 10:28 | 1.62374 | 110.59174 | 10565 ft | 327 kts | 42° |
| 2026-05-06 10:28 | 1.64097 | 110.60712 | 11102 ft | 336 kts | 42° |
| 2026-05-06 10:28 | 1.65853 | 110.62280 | 11757 ft | 340 kts | 42° |
| 2026-05-06 10:29 | 1.67594 | 110.63833 | 12427 ft | 344 kts | 42° |
| 2026-05-06 10:29 | 1.69410 | 110.65450 | 13113 ft | 348 kts | 42° |
| 2026-05-06 10:29 | 1.71224 | 110.67062 | 13759 ft | 351 kts | 42° |
| 2026-05-06 10:29 | 1.73062 | 110.68696 | 14363 ft | 354 kts | 42° |
| 2026-05-06 10:30 | 1.74905 | 110.70335 | 14969 ft | 357 kts | 43° |
| 2026-05-06 10:30 | 1.76767 | 110.71995 | 15569 ft | 359 kts | 43° |
| 2026-05-06 10:30 | 1.78635 | 110.73659 | 16163 ft | 362 kts | 43° |
| 2026-05-06 10:30 | 1.80521 | 110.75342 | 16752 ft | 365 kts | 43° |
| 2026-05-06 10:31 | 1.82419 | 110.77037 | 17326 ft | 368 kts | 43° |
| 2026-05-06 10:31 | 1.84338 | 110.78752 | 17898 ft | 371 kts | 43° |
| 2026-05-06 10:31 | 1.86123 | 110.80618 | 18400 ft | 373 kts | 52° |
| 2026-05-06 10:31 | 1.87716 | 110.82677 | 18896 ft | 376 kts | 53° |
| 2026-05-06 10:32 | 1.89322 | 110.84751 | 19388 ft | 378 kts | 53° |
| 2026-05-06 10:32 | 1.90939 | 110.86835 | 19887 ft | 381 kts | 53° |
| 2026-05-06 10:32 | 1.92569 | 110.88941 | 20390 ft | 384 kts | 53° |
| 2026-05-06 10:32 | 1.94208 | 110.91059 | 20887 ft | 387 kts | 53° |
| 2026-05-06 10:33 | 1.95859 | 110.93194 | 21387 ft | 390 kts | 53° |
| 2026-05-06 10:33 | 1.97525 | 110.95344 | 21887 ft | 393 kts | 53° |
| 2026-05-06 10:33 | 1.99203 | 110.97504 | 22385 ft | 395 kts | 53° |
| 2026-05-06 10:33 | 2.00898 | 110.99686 | 22860 ft | 398 kts | 53° |
| 2026-05-06 10:34 | 2.02589 | 111.01868 | 23338 ft | 401 kts | 53° |
| 2026-05-06 10:34 | 2.04303 | 111.04082 | 23745 ft | 404 kts | 53° |
| 2026-05-06 10:34 | 2.06030 | 111.06312 | 24138 ft | 407 kts | 53° |
| 2026-05-06 10:34 | 2.07768 | 111.08551 | 24537 ft | 409 kts | 53° |
| 2026-05-06 10:35 | 2.09516 | 111.10801 | 24923 ft | 411 kts | 53° |
| 2026-05-06 10:35 | 2.11273 | 111.13068 | 25309 ft | 413 kts | 53° |
| 2026-05-06 10:35 | 2.13040 | 111.15349 | 25696 ft | 416 kts | 53° |
| 2026-05-06 10:35 | 2.14814 | 111.17638 | 26076 ft | 418 kts | 53° |
| 2026-05-06 10:36 | 2.16598 | 111.19946 | 26450 ft | 420 kts | 53° |
| 2026-05-06 10:36 | 2.18390 | 111.22265 | 26811 ft | 422 kts | 53° |
| 2026-05-06 10:36 | 2.20193 | 111.24595 | 27169 ft | 425 kts | 53° |
| 2026-05-06 10:36 | 2.22003 | 111.26933 | 27522 ft | 427 kts | 53° |
| 2026-05-06 10:37 | 2.23828 | 111.29288 | 27872 ft | 429 kts | 53° |
| 2026-05-06 10:37 | 2.25662 | 111.31651 | 28215 ft | 431 kts | 53° |
| 2026-05-06 10:37 | 2.27507 | 111.34029 | 28566 ft | 434 kts | 53° |
| 2026-05-06 10:37 | 2.29361 | 111.36420 | 28916 ft | 436 kts | 53° |
| 2026-05-06 10:38 | 2.31221 | 111.38821 | 29261 ft | 438 kts | 53° |
| 2026-05-06 10:38 | 2.33153 | 111.41191 | 29610 ft | 441 kts | 51° |
| 2026-05-06 10:38 | 2.35177 | 111.43509 | 29949 ft | 444 kts | 50° |
| 2026-05-06 10:38 | 2.37265 | 111.45799 | 30247 ft | 446 kts | 49° |
| 2026-05-06 10:39 | 2.39367 | 111.48063 | 30548 ft | 448 kts | 49° |
| 2026-05-06 10:39 | 2.41493 | 111.50356 | 30851 ft | 450 kts | 49° |
| 2026-05-06 10:39 | 2.43614 | 111.52667 | 31151 ft | 452 kts | 49° |
| 2026-05-06 10:39 | 2.45729 | 111.54999 | 31450 ft | 454 kts | 49° |
| 2026-05-06 10:40 | 2.47842 | 111.57350 | 31791 ft | 454 kts | 50° |
| 2026-05-06 10:40 | 2.49940 | 111.59698 | 32231 ft | 452 kts | 50° |
| 2026-05-06 10:40 | 2.52031 | 111.62041 | 32667 ft | 451 kts | 50° |
| 2026-05-06 10:40 | 2.54117 | 111.64375 | 33102 ft | 450 kts | 50° |
| 2026-05-06 10:41 | 2.56202 | 111.66701 | 33545 ft | 448 kts | 50° |
| 2026-05-06 10:41 | 2.58278 | 111.69016 | 33951 ft | 447 kts | 50° |
| 2026-05-06 10:41 | 2.60351 | 111.71328 | 34309 ft | 447 kts | 50° |
| 2026-05-06 10:41 | 2.62426 | 111.73644 | 34666 ft | 446 kts | 50° |
| 2026-05-06 10:42 | 2.64493 | 111.75951 | 35017 ft | 445 kts | 50° |
| 2026-05-06 10:42 | 2.66557 | 111.78252 | 35364 ft | 444 kts | 50° |
| 2026-05-06 10:42 | 2.68620 | 111.80552 | 35699 ft | 444 kts | 50° |
| 2026-05-06 10:42 | 2.70681 | 111.82848 | 36038 ft | 443 kts | 50° |
| 2026-05-06 10:43 | 2.72737 | 111.85141 | 36373 ft | 443 kts | 50° |
| 2026-05-06 10:43 | 2.74790 | 111.87432 | 36692 ft | 442 kts | 50° |
| 2026-05-06 10:43 | 2.76845 | 111.89726 | 36824 ft | 442 kts | 50° |
| 2026-05-06 10:44 | 2.80903 | 111.94249 | 36841 ft | 439 kts | 50° |
| 2026-05-06 10:44 | 2.84978 | 111.98788 | 36846 ft | 438 kts | 50° |
| 2026-05-06 10:45 | 2.89030 | 112.03339 | 36848 ft | 437 kts | 53° |
| 2026-05-06 10:45 | 2.92505 | 112.08309 | 36842 ft | 436 kts | 57° |
| 2026-05-06 10:46 | 2.95942 | 112.13310 | 36846 ft | 436 kts | 57° |
| 2026-05-06 10:46 | 2.99382 | 112.18309 | 36854 ft | 436 kts | 57° |
| 2026-05-06 10:47 | 3.02818 | 112.23309 | 36865 ft | 436 kts | 57° |
| 2026-05-06 10:47 | 3.06250 | 112.28310 | 36863 ft | 436 kts | 57° |
| 2026-05-06 10:48 | 3.09678 | 112.33307 | 36862 ft | 435 kts | 57° |
| 2026-05-06 10:48 | 3.13103 | 112.38299 | 36863 ft | 435 kts | 57° |
| 2026-05-06 10:49 | 3.16523 | 112.43271 | 36862 ft | 435 kts | 57° |
| 2026-05-06 10:49 | 3.19946 | 112.48262 | 36858 ft | 435 kts | 57° |
| 2026-05-06 10:50 | 3.23366 | 112.53259 | 36859 ft | 435 kts | 57° |
| 2026-05-06 10:50 | 3.26788 | 112.58251 | 36857 ft | 435 kts | 57° |
| 2026-05-06 10:51 | 3.30214 | 112.63252 | 36850 ft | 435 kts | 57° |
| 2026-05-06 10:51 | 3.33085 | 112.67439 | 36857 ft | 436 kts | 57° |
| 2026-05-06 10:52 | 3.36511 | 112.72436 | 36852 ft | 436 kts | 57° |
| 2026-05-06 10:52 | 3.39940 | 112.77442 | 36864 ft | 436 kts | 57° |
| 2026-05-06 10:53 | 3.43376 | 112.82445 | 36855 ft | 436 kts | 57° |
| 2026-05-06 10:53 | 3.46900 | 112.87398 | 36859 ft | 437 kts | 55° |
| 2026-05-06 10:54 | 3.50597 | 112.92230 | 36865 ft | 437 kts | 54° |
| 2026-05-06 10:54 | 3.54308 | 112.97025 | 36862 ft | 438 kts | 54° |
| 2026-05-06 10:55 | 3.57989 | 113.01871 | 36868 ft | 438 kts | 54° |
| 2026-05-06 10:55 | 3.61651 | 113.06741 | 36855 ft | 438 kts | 54° |
| 2026-05-06 10:56 | 3.65315 | 113.11609 | 36865 ft | 438 kts | 54° |
| 2026-05-06 10:56 | 3.68991 | 113.16471 | 36861 ft | 438 kts | 54° |
| 2026-05-06 10:57 | 3.72665 | 113.21333 | 36867 ft | 438 kts | 54° |
| 2026-05-06 10:57 | 3.76339 | 113.26205 | 36856 ft | 438 kts | 54° |
| 2026-05-06 10:58 | 3.80015 | 113.31083 | 36863 ft | 438 kts | 54° |
| 2026-05-06 10:58 | 3.83693 | 113.35954 | 36870 ft | 439 kts | 54° |
| 2026-05-06 10:58 | 3.85539 | 113.38399 | 36553 ft | 443 kts | 54° |
| 2026-05-06 10:59 | 3.87395 | 113.40860 | 36074 ft | 441 kts | 54° |
| 2026-05-06 10:59 | 3.89221 | 113.43279 | 35647 ft | 437 kts | 54° |
| 2026-05-06 10:59 | 3.91051 | 113.45700 | 35179 ft | 435 kts | 54° |
| 2026-05-06 10:59 | 3.92871 | 113.48109 | 34727 ft | 433 kts | 54° |
| 2026-05-06 11:00 | 3.94681 | 113.50510 | 34240 ft | 431 kts | 54° |
| 2026-05-06 11:00 | 3.96482 | 113.52900 | 33752 ft | 430 kts | 54° |
| 2026-05-06 11:00 | 3.98280 | 113.55287 | 33245 ft | 427 kts | 54° |
| 2026-05-06 11:00 | 4.00058 | 113.57645 | 32775 ft | 424 kts | 54° |
| 2026-05-06 11:01 | 4.01831 | 113.59998 | 32306 ft | 421 kts | 54° |
| 2026-05-06 11:01 | 4.03587 | 113.62330 | 31836 ft | 418 kts | 54° |
| 2026-05-06 11:01 | 4.05309 | 113.64621 | 31383 ft | 415 kts | 54° |
| 2026-05-06 11:01 | 4.07064 | 113.66955 | 30928 ft | 413 kts | 54° |
| 2026-05-06 11:02 | 4.08764 | 113.69211 | 30491 ft | 411 kts | 54° |
| 2026-05-06 11:02 | 4.10482 | 113.71488 | 30058 ft | 409 kts | 54° |
| 2026-05-06 11:02 | 4.12193 | 113.73755 | 29584 ft | 407 kts | 54° |
| 2026-05-06 11:02 | 4.13889 | 113.76003 | 29167 ft | 403 kts | 54° |
| 2026-05-06 11:03 | 4.15591 | 113.78262 | 28752 ft | 399 kts | 54° |
| 2026-05-06 11:03 | 4.17259 | 113.80478 | 28351 ft | 396 kts | 54° |
| 2026-05-06 11:03 | 4.18915 | 113.82675 | 27957 ft | 394 kts | 54° |
| 2026-05-06 11:03 | 4.20560 | 113.84860 | 27558 ft | 392 kts | 54° |
| 2026-05-06 11:04 | 4.22176 | 113.87005 | 27157 ft | 390 kts | 54° |
| 2026-05-06 11:04 | 4.23822 | 113.89188 | 26747 ft | 389 kts | 54° |
| 2026-05-06 11:04 | 4.25450 | 113.91347 | 26329 ft | 388 kts | 54° |
| 2026-05-06 11:04 | 4.27074 | 113.93502 | 25907 ft | 387 kts | 54° |
| 2026-05-06 11:05 | 4.28690 | 113.95649 | 25472 ft | 387 kts | 54° |
| 2026-05-06 11:05 | 4.30309 | 113.97809 | 25023 ft | 387 kts | 55° |
| 2026-05-06 11:05 | 4.31845 | 114.00018 | 24566 ft | 386 kts | 57° |
| 2026-05-06 11:05 | 4.33299 | 114.02282 | 24099 ft | 387 kts | 59° |
| 2026-05-06 11:06 | 4.34709 | 114.04576 | 23629 ft | 387 kts | 59° |
| 2026-05-06 11:06 | 4.36099 | 114.06871 | 23242 ft | 383 kts | 60° |
| 2026-05-06 11:06 | 4.37491 | 114.09155 | 22758 ft | 382 kts | 59° |
| 2026-05-06 11:06 | 4.38866 | 114.11377 | 22220 ft | 381 kts | 59° |
| 2026-05-06 11:07 | 4.40284 | 114.13640 | 21898 ft | 375 kts | 59° |
| 2026-05-06 11:07 | 4.41673 | 114.15839 | 21415 ft | 373 kts | 58° |
| 2026-05-06 11:07 | 4.43057 | 114.18025 | 20950 ft | 370 kts | 58° |
| 2026-05-06 11:07 | 4.44428 | 114.20196 | 20491 ft | 368 kts | 58° |
| 2026-05-06 11:08 | 4.45793 | 114.22358 | 20041 ft | 365 kts | 58° |
| 2026-05-06 11:08 | 4.47145 | 114.24500 | 19603 ft | 363 kts | 58° |
| 2026-05-06 11:08 | 4.48491 | 114.26632 | 19169 ft | 360 kts | 58° |
| 2026-05-06 11:08 | 4.49826 | 114.28749 | 18734 ft | 358 kts | 58° |
| 2026-05-06 11:09 | 4.51117 | 114.30795 | 18329 ft | 356 kts | 58° |
| 2026-05-06 11:09 | 4.52457 | 114.32921 | 17869 ft | 353 kts | 58° |
| 2026-05-06 11:09 | 4.53767 | 114.35002 | 17392 ft | 351 kts | 58° |
| 2026-05-06 11:09 | 4.55065 | 114.37062 | 16925 ft | 348 kts | 58° |
| 2026-05-06 11:10 | 4.56356 | 114.39104 | 16462 ft | 346 kts | 58° |
| 2026-05-06 11:10 | 4.57641 | 114.41139 | 16021 ft | 344 kts | 58° |
| 2026-05-06 11:10 | 4.58911 | 114.43157 | 15582 ft | 341 kts | 58° |
| 2026-05-06 11:10 | 4.60171 | 114.45162 | 15152 ft | 339 kts | 58° |
| 2026-05-06 11:11 | 4.61423 | 114.47153 | 14730 ft | 337 kts | 58° |
| 2026-05-06 11:11 | 4.62668 | 114.49136 | 14315 ft | 334 kts | 58° |
| 2026-05-06 11:11 | 4.63904 | 114.51100 | 13905 ft | 332 kts | 58° |
| 2026-05-06 11:11 | 4.65133 | 114.53050 | 13480 ft | 330 kts | 57° |
| 2026-05-06 11:12 | 4.66359 | 114.54990 | 13021 ft | 328 kts | 58° |
| 2026-05-06 11:12 | 4.67444 | 114.56977 | 12322 ft | 323 kts | 63° |
| 2026-05-06 11:12 | 4.68434 | 114.58981 | 11528 ft | 320 kts | 64° |
| 2026-05-06 11:12 | 4.69391 | 114.60988 | 10778 ft | 317 kts | 65° |
| 2026-05-06 11:13 | 4.70319 | 114.62973 | 10059 ft | 314 kts | 65° |
| 2026-05-06 11:13 | 4.71236 | 114.64945 | 9561 ft | 303 kts | 65° |
| 2026-05-06 11:13 | 4.72116 | 114.66828 | 9022 ft | 295 kts | 65° |
| 2026-05-06 11:13 | 4.72977 | 114.68661 | 8386 ft | 290 kts | 65° |
| 2026-05-06 11:14 | 4.73829 | 114.70470 | 7757 ft | 288 kts | 65° |
| 2026-05-06 11:14 | 4.74680 | 114.72277 | 7128 ft | 285 kts | 64° |
| 2026-05-06 11:14 | 4.75531 | 114.74080 | 6422 ft | 286 kts | 64° |
| 2026-05-06 11:14 | 4.76384 | 114.75884 | 5689 ft | 287 kts | 64° |
| 2026-05-06 11:15 | 4.77239 | 114.77688 | 4956 ft | 287 kts | 64° |
| 2026-05-06 11:15 | 4.78094 | 114.79495 | 4208 ft | 287 kts | 64° |
| 2026-05-06 11:15 | 4.78948 | 114.81301 | 3506 ft | 286 kts | 64° |
| 2026-05-06 11:15 | 4.79777 | 114.83048 | 3176 ft | 270 kts | 62° |
| 2026-05-06 11:16 | 4.80850 | 114.84520 | 2864 ft | 255 kts | 43° |
| 2026-05-06 11:16 | 4.82256 | 114.85528 | 2557 ft | 242 kts | 30° |
| 2026-05-06 11:16 | 4.83642 | 114.86359 | 2243 ft | 221 kts | 30° |
| 2026-05-06 11:16 | 4.84899 | 114.87114 | 1951 ft | 202 kts | 30° |
| 2026-05-06 11:17 | 4.86084 | 114.87825 | 1689 ft | 194 kts | 30° |
| 2026-05-06 11:17 | 4.87203 | 114.88498 | 1437 ft | 182 kts | 30° |
| 2026-05-06 11:17 | 4.88222 | 114.89111 | 1187 ft | 158 kts | 30° |
| 2026-05-06 11:17 | 4.89115 | 114.89648 | 984 ft | 144 kts | 30° |
| 2026-05-06 11:18 | 4.89945 | 114.90145 | 801 ft | 140 kts | 30° |
| 2026-05-06 11:18 | 4.90793 | 114.90655 | 627 ft | 139 kts | 30° |
| 2026-05-06 11:18 | 4.91626 | 114.91158 | 427 ft | 141 kts | 31° |
| 2026-05-06 11:18 | 4.92470 | 114.91660 | 218 ft | 141 kts | 32° |
| 2026-05-06 11:19 | 4.93302 | 114.92161 | 51 ft | 140 kts | 32° |
| 2026-05-06 11:19 | 4.94039 | 114.92603 | 46 ft | 104 kts | 31° |
| 2026-05-06 11:19 | 4.94485 | 114.92871 | 56 ft | 26 kts | 30° |
| 2026-05-06 11:19 | 4.94507 | 114.92909 | 57 ft | 8 kts | 106° |
| 2026-05-06 11:20 | 4.94488 | 114.92972 | 51 ft | 11 kts | 103° |
| 2026-05-06 11:20 | 4.94489 | 114.93058 | 55 ft | 14 kts | 85° |
| 2026-05-06 11:20 | 4.94495 | 114.93149 | 59 ft | 9 kts | 111° |
| 2026-05-06 11:20 | 4.94443 | 114.93201 | 57 ft | 11 kts | 118° |
| 2026-05-06 11:21 | 4.94448 | 114.93215 | 59 ft | 0 kts | 45° |